sensor_id;sensor_type;location;lat;lon;timestamp;P1;durP1;ratioP1;P2;durP2;ratioP2
74959;SDS011;63518;49.572;1.106;2024-02-21T00:01:29;850.47;;;784.10;;
74959;SDS011;63518;49.572;1.106;2024-02-21T00:03:56;853.42;;;787.15;;
74959;SDS011;63518;49.572;1.106;2024-02-21T00:06:23;854.22;;;787.50;;
74959;SDS011;63518;49.572;1.106;2024-02-21T00:08:50;856.20;;;789.67;;
74959;SDS011;63518;49.572;1.106;2024-02-21T00:11:16;867.88;;;801.33;;
74959;SDS011;63518;49.572;1.106;2024-02-21T00:13:43;858.03;;;791.88;;
74959;SDS011;63518;49.572;1.106;2024-02-21T00:16:10;848.78;;;782.53;;
74959;SDS011;63518;49.572;1.106;2024-02-21T00:18:37;863.75;;;797.63;;
74959;SDS011;63518;49.572;1.106;2024-02-21T00:21:04;859.35;;;793.35;;
74959;SDS011;63518;49.572;1.106;2024-02-21T00:23:31;851.72;;;786.20;;
74959;SDS011;63518;49.572;1.106;2024-02-21T00:25:57;846.45;;;781.08;;
74959;SDS011;63518;49.572;1.106;2024-02-21T00:28:24;856.15;;;790.35;;
74959;SDS011;63518;49.572;1.106;2024-02-21T00:30:51;854.45;;;788.83;;
74959;SDS011;63518;49.572;1.106;2024-02-21T00:33:19;858.35;;;792.13;;
74959;SDS011;63518;49.572;1.106;2024-02-21T00:35:46;853.38;;;787.72;;
74959;SDS011;63518;49.572;1.106;2024-02-21T00:38:13;855.55;;;789.60;;
74959;SDS011;63518;49.572;1.106;2024-02-21T00:40:39;858.25;;;793.03;;
74959;SDS011;63518;49.572;1.106;2024-02-21T00:43:06;855.53;;;789.88;;
74959;SDS011;63518;49.572;1.106;2024-02-21T00:45:33;851.70;;;786.80;;
74959;SDS011;63518;49.572;1.106;2024-02-21T00:48:00;855.90;;;791.03;;
74959;SDS011;63518;49.572;1.106;2024-02-21T00:50:27;854.15;;;789.03;;
74959;SDS011;63518;49.572;1.106;2024-02-21T00:52:53;855.55;;;791.35;;
74959;SDS011;63518;49.572;1.106;2024-02-21T00:55:20;854.28;;;790.20;;
74959;SDS011;63518;49.572;1.106;2024-02-21T00:57:47;848.63;;;784.55;;
74959;SDS011;63518;49.572;1.106;2024-02-21T01:00:14;854.53;;;788.72;;
74959;SDS011;63518;49.572;1.106;2024-02-21T01:02:41;852.38;;;787.55;;
74959;SDS011;63518;49.572;1.106;2024-02-21T01:05:07;847.53;;;782.72;;
74959;SDS011;63518;49.572;1.106;2024-02-21T01:07:34;843.90;;;780.03;;
74959;SDS011;63518;49.572;1.106;2024-02-21T01:10:01;842.67;;;778.75;;
74959;SDS011;63518;49.572;1.106;2024-02-21T01:12:28;843.72;;;780.35;;
74959;SDS011;63518;49.572;1.106;2024-02-21T01:14:55;845.45;;;781.55;;
74959;SDS011;63518;49.572;1.106;2024-02-21T01:17:21;843.58;;;780.30;;
74959;SDS011;63518;49.572;1.106;2024-02-21T01:19:48;838.15;;;775.53;;
74959;SDS011;63518;49.572;1.106;2024-02-21T01:22:15;843.08;;;779.92;;
74959;SDS011;63518;49.572;1.106;2024-02-21T01:24:42;838.17;;;775.05;;
74959;SDS011;63518;49.572;1.106;2024-02-21T01:27:09;830.55;;;768.50;;
74959;SDS011;63518;49.572;1.106;2024-02-21T01:29:35;839.63;;;777.42;;
74959;SDS011;63518;49.572;1.106;2024-02-21T01:32:02;836.85;;;774.95;;
74959;SDS011;63518;49.572;1.106;2024-02-21T01:34:29;836.42;;;775.00;;
74959;SDS011;63518;49.572;1.106;2024-02-21T01:36:58;833.92;;;772.30;;
74959;SDS011;63518;49.572;1.106;2024-02-21T01:39:26;834.03;;;773.13;;
74959;SDS011;63518;49.572;1.106;2024-02-21T01:41:53;838.63;;;777.50;;
74959;SDS011;63518;49.572;1.106;2024-02-21T01:44:19;830.95;;;770.65;;
74959;SDS011;63518;49.572;1.106;2024-02-21T01:46:46;832.83;;;772.35;;
74959;SDS011;63518;49.572;1.106;2024-02-21T01:49:13;828.88;;;769.25;;
74959;SDS011;63518;49.572;1.106;2024-02-21T01:51:40;827.10;;;767.55;;
74959;SDS011;63518;49.572;1.106;2024-02-21T01:54:07;827.63;;;767.33;;
74959;SDS011;63518;49.572;1.106;2024-02-21T01:56:35;826.92;;;767.10;;
74959;SDS011;63518;49.572;1.106;2024-02-21T01:59:02;826.40;;;766.55;;
74959;SDS011;63518;49.572;1.106;2024-02-21T02:01:29;825.42;;;766.10;;
74959;SDS011;63518;49.572;1.106;2024-02-21T02:03:56;832.13;;;772.45;;
74959;SDS011;63518;49.572;1.106;2024-02-21T02:06:25;821.50;;;762.72;;
74959;SDS011;63518;49.572;1.106;2024-02-21T02:08:52;830.78;;;771.65;;
74959;SDS011;63518;49.572;1.106;2024-02-21T02:11:21;831.55;;;772.70;;
74959;SDS011;63518;49.572;1.106;2024-02-21T02:13:47;828.25;;;769.45;;
74959;SDS011;63518;49.572;1.106;2024-02-21T02:16:14;830.72;;;772.33;;
74959;SDS011;63518;49.572;1.106;2024-02-21T02:18:41;833.90;;;774.17;;
74959;SDS011;63518;49.572;1.106;2024-02-21T02:21:10;824.47;;;766.50;;
74959;SDS011;63518;49.572;1.106;2024-02-21T02:26:17;817.40;;;760.03;;
74959;SDS011;63518;49.572;1.106;2024-02-21T02:28:44;823.00;;;764.88;;
74959;SDS011;63518;49.572;1.106;2024-02-21T02:31:10;825.97;;;767.75;;
74959;SDS011;63518;49.572;1.106;2024-02-21T02:33:37;819.53;;;761.92;;
74959;SDS011;63518;49.572;1.106;2024-02-21T02:36:04;824.70;;;767.78;;
74959;SDS011;63518;49.572;1.106;2024-02-21T02:38:31;824.85;;;767.15;;
74959;SDS011;63518;49.572;1.106;2024-02-21T02:40:58;826.78;;;769.33;;
74959;SDS011;63518;49.572;1.106;2024-02-21T02:43:25;815.95;;;759.25;;
74959;SDS011;63518;49.572;1.106;2024-02-21T02:45:52;819.35;;;761.90;;
74959;SDS011;63518;49.572;1.106;2024-02-21T02:48:18;822.35;;;765.10;;
74959;SDS011;63518;49.572;1.106;2024-02-21T02:50:46;822.38;;;766.10;;
74959;SDS011;63518;49.572;1.106;2024-02-21T02:53:13;814.97;;;759.33;;
74959;SDS011;63518;49.572;1.106;2024-02-21T02:55:39;819.75;;;764.00;;
74959;SDS011;63518;49.572;1.106;2024-02-21T02:58:06;812.25;;;756.55;;
74959;SDS011;63518;49.572;1.106;2024-02-21T03:00:33;819.88;;;763.83;;
74959;SDS011;63518;49.572;1.106;2024-02-21T03:03:02;818.05;;;761.90;;
74959;SDS011;63518;49.572;1.106;2024-02-21T03:05:34;815.50;;;759.53;;
74959;SDS011;63518;49.572;1.106;2024-02-21T03:08:01;821.85;;;765.42;;
74959;SDS011;63518;49.572;1.106;2024-02-21T03:10:28;827.17;;;771.47;;
74959;SDS011;63518;49.572;1.106;2024-02-21T03:12:55;816.50;;;760.75;;
74959;SDS011;63518;49.572;1.106;2024-02-21T03:15:22;821.67;;;765.80;;
74959;SDS011;63518;49.572;1.106;2024-02-21T03:17:48;818.38;;;762.42;;
74959;SDS011;63518;49.572;1.106;2024-02-21T03:26:20;813.47;;;758.83;;
74959;SDS011;63518;49.572;1.106;2024-02-21T03:28:47;818.15;;;763.63;;
74959;SDS011;63518;49.572;1.106;2024-02-21T03:31:14;814.88;;;760.60;;
74959;SDS011;63518;49.572;1.106;2024-02-21T03:33:42;812.25;;;758.33;;
74959;SDS011;63518;49.572;1.106;2024-02-21T03:36:13;814.17;;;759.90;;
74959;SDS011;63518;49.572;1.106;2024-02-21T03:38:41;815.35;;;760.72;;
74959;SDS011;63518;49.572;1.106;2024-02-21T03:41:08;815.17;;;760.47;;
74959;SDS011;63518;49.572;1.106;2024-02-21T03:43:34;813.13;;;758.40;;
74959;SDS011;63518;49.572;1.106;2024-02-21T03:46:01;814.90;;;760.10;;
74959;SDS011;63518;49.572;1.106;2024-02-21T03:48:28;809.20;;;754.75;;
74959;SDS011;63518;49.572;1.106;2024-02-21T03:50:54;820.25;;;764.75;;
74959;SDS011;63518;49.572;1.106;2024-02-21T03:53:21;808.67;;;754.00;;
74959;SDS011;63518;49.572;1.106;2024-02-21T03:55:48;815.95;;;760.58;;
74959;SDS011;63518;49.572;1.106;2024-02-21T03:58:15;817.80;;;762.10;;
74959;SDS011;63518;49.572;1.106;2024-02-21T04:00:41;819.28;;;763.85;;
74959;SDS011;63518;49.572;1.106;2024-02-21T04:03:08;828.65;;;774.15;;
74959;SDS011;63518;49.572;1.106;2024-02-21T04:05:35;811.83;;;757.13;;
74959;SDS011;63518;49.572;1.106;2024-02-21T04:08:05;812.55;;;757.97;;
74959;SDS011;63518;49.572;1.106;2024-02-21T04:12:58;814.17;;;759.05;;
74959;SDS011;63518;49.572;1.106;2024-02-21T04:15:25;819.47;;;763.25;;
74959;SDS011;63518;49.572;1.106;2024-02-21T04:17:52;815.60;;;760.05;;
74959;SDS011;63518;49.572;1.106;2024-02-21T04:20:19;823.92;;;768.15;;
74959;SDS011;63518;49.572;1.106;2024-02-21T04:22:46;821.65;;;765.88;;
74959;SDS011;63518;49.572;1.106;2024-02-21T04:25:13;816.95;;;761.33;;
74959;SDS011;63518;49.572;1.106;2024-02-21T04:27:39;823.10;;;767.17;;
74959;SDS011;63518;49.572;1.106;2024-02-21T04:30:06;811.40;;;756.17;;
74959;SDS011;63518;49.572;1.106;2024-02-21T04:32:33;819.53;;;763.42;;
74959;SDS011;63518;49.572;1.106;2024-02-21T04:35:00;816.63;;;759.92;;
74959;SDS011;63518;49.572;1.106;2024-02-21T04:37:27;810.53;;;753.60;;
74959;SDS011;63518;49.572;1.106;2024-02-21T04:39:54;829.97;;;772.00;;
74959;SDS011;63518;49.572;1.106;2024-02-21T04:42:21;814.35;;;757.58;;
74959;SDS011;63518;49.572;1.106;2024-02-21T04:44:47;819.85;;;762.83;;
74959;SDS011;63518;49.572;1.106;2024-02-21T04:47:14;811.35;;;755.30;;
74959;SDS011;63518;49.572;1.106;2024-02-21T04:49:41;814.40;;;757.72;;
74959;SDS011;63518;49.572;1.106;2024-02-21T04:52:08;813.47;;;756.10;;
74959;SDS011;63518;49.572;1.106;2024-02-21T04:54:34;814.58;;;757.28;;
74959;SDS011;63518;49.572;1.106;2024-02-21T04:57:01;817.33;;;759.92;;
74959;SDS011;63518;49.572;1.106;2024-02-21T04:59:28;818.55;;;761.63;;
74959;SDS011;63518;49.572;1.106;2024-02-21T05:01:55;810.72;;;754.50;;
74959;SDS011;63518;49.572;1.106;2024-02-21T05:04:22;817.78;;;760.30;;
74959;SDS011;63518;49.572;1.106;2024-02-21T05:06:49;808.58;;;751.97;;
74959;SDS011;63518;49.572;1.106;2024-02-21T05:09:16;812.78;;;756.42;;
74959;SDS011;63518;49.572;1.106;2024-02-21T05:11:42;816.38;;;760.17;;
74959;SDS011;63518;49.572;1.106;2024-02-21T05:14:09;815.15;;;759.45;;
74959;SDS011;63518;49.572;1.106;2024-02-21T05:16:36;809.17;;;754.58;;
74959;SDS011;63518;49.572;1.106;2024-02-21T05:19:03;818.80;;;764.25;;
74959;SDS011;63518;49.572;1.106;2024-02-21T05:21:30;814.30;;;759.35;;
74959;SDS011;63518;49.572;1.106;2024-02-21T05:23:57;817.20;;;762.88;;
74959;SDS011;63518;49.572;1.106;2024-02-21T05:26:24;813.58;;;758.97;;
74959;SDS011;63518;49.572;1.106;2024-02-21T05:28:52;817.92;;;763.28;;
74959;SDS011;63518;49.572;1.106;2024-02-21T05:31:19;805.55;;;751.70;;
74959;SDS011;63518;49.572;1.106;2024-02-21T05:33:47;815.97;;;762.45;;
74959;SDS011;63518;49.572;1.106;2024-02-21T05:36:14;807.50;;;753.70;;
74959;SDS011;63518;49.572;1.106;2024-02-21T05:38:41;823.83;;;768.75;;
74959;SDS011;63518;49.572;1.106;2024-02-21T05:41:07;803.75;;;750.20;;
74959;SDS011;63518;49.572;1.106;2024-02-21T05:43:37;803.45;;;750.25;;
74959;SDS011;63518;49.572;1.106;2024-02-21T05:46:04;810.33;;;756.80;;
74959;SDS011;63518;49.572;1.106;2024-02-21T05:48:31;806.15;;;753.25;;
74959;SDS011;63518;49.572;1.106;2024-02-21T05:51:03;810.75;;;757.40;;
74959;SDS011;63518;49.572;1.106;2024-02-21T05:53:30;809.78;;;755.50;;
74959;SDS011;63518;49.572;1.106;2024-02-21T05:55:57;815.17;;;761.08;;
74959;SDS011;63518;49.572;1.106;2024-02-21T05:58:24;815.35;;;761.65;;
74959;SDS011;63518;49.572;1.106;2024-02-21T06:00:50;812.50;;;758.72;;
74959;SDS011;63518;49.572;1.106;2024-02-21T06:03:17;812.15;;;757.25;;
74959;SDS011;63518;49.572;1.106;2024-02-21T06:05:44;801.35;;;747.05;;
74959;SDS011;63518;49.572;1.106;2024-02-21T06:08:10;803.10;;;747.75;;
74959;SDS011;63518;49.572;1.106;2024-02-21T06:10:37;795.47;;;741.00;;
74959;SDS011;63518;49.572;1.106;2024-02-21T06:13:04;800.53;;;745.90;;
74959;SDS011;63518;49.572;1.106;2024-02-21T06:15:31;800.15;;;745.28;;
74959;SDS011;63518;49.572;1.106;2024-02-21T06:17:58;803.10;;;748.03;;
74959;SDS011;63518;49.572;1.106;2024-02-21T06:20:24;796.53;;;741.92;;
74959;SDS011;63518;49.572;1.106;2024-02-21T06:22:51;800.45;;;745.72;;
74959;SDS011;63518;49.572;1.106;2024-02-21T06:25:18;805.40;;;750.42;;
74959;SDS011;63518;49.572;1.106;2024-02-21T06:27:45;802.80;;;747.90;;
74959;SDS011;63518;49.572;1.106;2024-02-21T06:30:12;807.05;;;751.55;;
74959;SDS011;63518;49.572;1.106;2024-02-21T06:32:38;808.78;;;752.58;;
74959;SDS011;63518;49.572;1.106;2024-02-21T06:35:05;807.00;;;750.92;;
74959;SDS011;63518;49.572;1.106;2024-02-21T06:37:32;811.65;;;755.00;;
74959;SDS011;63518;49.572;1.106;2024-02-21T06:39:59;811.33;;;754.20;;
74959;SDS011;63518;49.572;1.106;2024-02-21T06:42:26;800.78;;;745.20;;
74959;SDS011;63518;49.572;1.106;2024-02-21T06:44:53;805.80;;;749.70;;
74959;SDS011;63518;49.572;1.106;2024-02-21T06:47:19;806.13;;;750.22;;
74959;SDS011;63518;49.572;1.106;2024-02-21T06:49:49;807.55;;;750.90;;
74959;SDS011;63518;49.572;1.106;2024-02-21T06:52:19;809.10;;;752.90;;
74959;SDS011;63518;49.572;1.106;2024-02-21T06:54:50;797.22;;;742.08;;
74959;SDS011;63518;49.572;1.106;2024-02-21T06:57:16;808.88;;;752.55;;
74959;SDS011;63518;49.572;1.106;2024-02-21T06:59:43;799.22;;;743.80;;
74959;SDS011;63518;49.572;1.106;2024-02-21T07:02:10;825.22;;;766.47;;
74959;SDS011;63518;49.572;1.106;2024-02-21T07:04:37;820.45;;;763.05;;
74959;SDS011;63518;49.572;1.106;2024-02-21T07:07:04;825.78;;;767.85;;
74959;SDS011;63518;49.572;1.106;2024-02-21T07:09:30;823.67;;;765.13;;
74959;SDS011;63518;49.572;1.106;2024-02-21T07:11:58;825.63;;;767.35;;
74959;SDS011;63518;49.572;1.106;2024-02-21T07:14:27;821.63;;;763.90;;
74959;SDS011;63518;49.572;1.106;2024-02-21T07:16:54;826.28;;;768.47;;
74959;SDS011;63518;49.572;1.106;2024-02-21T07:19:23;827.15;;;768.40;;
74959;SDS011;63518;49.572;1.106;2024-02-21T07:21:50;835.05;;;776.38;;
74959;SDS011;63518;49.572;1.106;2024-02-21T07:24:17;832.72;;;771.28;;
74959;SDS011;63518;49.572;1.106;2024-02-21T07:26:44;834.80;;;772.97;;
74959;SDS011;63518;49.572;1.106;2024-02-21T07:29:11;840.65;;;777.50;;
74959;SDS011;63518;49.572;1.106;2024-02-21T07:31:41;841.83;;;779.75;;
74959;SDS011;63518;49.572;1.106;2024-02-21T07:34:09;830.70;;;770.20;;
74959;SDS011;63518;49.572;1.106;2024-02-21T07:36:36;832.20;;;772.95;;
74959;SDS011;63518;49.572;1.106;2024-02-21T07:39:06;829.85;;;770.10;;
74959;SDS011;63518;49.572;1.106;2024-02-21T07:41:33;825.03;;;766.45;;
74959;SDS011;63518;49.572;1.106;2024-02-21T07:44:01;824.15;;;765.05;;
74959;SDS011;63518;49.572;1.106;2024-02-21T07:46:27;829.55;;;770.33;;
74959;SDS011;63518;49.572;1.106;2024-02-21T07:48:54;821.15;;;763.40;;
74959;SDS011;63518;49.572;1.106;2024-02-21T07:51:21;820.75;;;762.35;;
74959;SDS011;63518;49.572;1.106;2024-02-21T07:53:47;817.45;;;760.47;;
74959;SDS011;63518;49.572;1.106;2024-02-21T07:56:15;818.78;;;761.95;;
74959;SDS011;63518;49.572;1.106;2024-02-21T07:58:42;820.28;;;763.33;;
74959;SDS011;63518;49.572;1.106;2024-02-21T08:01:09;823.05;;;766.42;;
74959;SDS011;63518;49.572;1.106;2024-02-21T08:03:37;819.13;;;762.13;;
74959;SDS011;63518;49.572;1.106;2024-02-21T08:06:04;819.00;;;761.97;;
74959;SDS011;63518;49.572;1.106;2024-02-21T08:08:31;823.10;;;766.83;;
74959;SDS011;63518;49.572;1.106;2024-02-21T08:10:58;827.30;;;770.08;;
74959;SDS011;63518;49.572;1.106;2024-02-21T08:13:25;825.25;;;769.20;;
74959;SDS011;63518;49.572;1.106;2024-02-21T08:15:55;814.47;;;759.05;;
74959;SDS011;63518;49.572;1.106;2024-02-21T08:18:28;818.00;;;762.50;;
74959;SDS011;63518;49.572;1.106;2024-02-21T08:20:56;815.47;;;759.28;;
74959;SDS011;63518;49.572;1.106;2024-02-21T08:23:23;815.60;;;759.75;;
74959;SDS011;63518;49.572;1.106;2024-02-21T08:25:51;814.22;;;758.38;;
74959;SDS011;63518;49.572;1.106;2024-02-21T08:28:18;813.45;;;757.63;;
74959;SDS011;63518;49.572;1.106;2024-02-21T08:30:45;826.63;;;770.60;;
74959;SDS011;63518;49.572;1.106;2024-02-21T08:33:15;811.35;;;755.92;;
74959;SDS011;63518;49.572;1.106;2024-02-21T08:35:43;811.63;;;755.55;;
74959;SDS011;63518;49.572;1.106;2024-02-21T08:38:10;810.92;;;754.15;;
74959;SDS011;63518;49.572;1.106;2024-02-21T08:40:37;817.58;;;761.08;;
74959;SDS011;63518;49.572;1.106;2024-02-21T08:43:04;811.47;;;754.72;;
74959;SDS011;63518;49.572;1.106;2024-02-21T08:45:31;812.08;;;755.33;;
74959;SDS011;63518;49.572;1.106;2024-02-21T08:47:58;818.42;;;760.70;;
74959;SDS011;63518;49.572;1.106;2024-02-21T08:50:26;815.83;;;757.80;;
74959;SDS011;63518;49.572;1.106;2024-02-21T08:52:55;810.33;;;753.20;;
74959;SDS011;63518;49.572;1.106;2024-02-21T08:55:22;815.42;;;757.65;;
74959;SDS011;63518;49.572;1.106;2024-02-21T08:57:51;817.97;;;760.53;;
74959;SDS011;63518;49.572;1.106;2024-02-21T09:00:18;823.30;;;764.83;;
74959;SDS011;63518;49.572;1.106;2024-02-21T09:02:50;813.80;;;757.03;;
74959;SDS011;63518;49.572;1.106;2024-02-21T09:05:17;812.50;;;755.00;;
74959;SDS011;63518;49.572;1.106;2024-02-21T09:07:45;811.40;;;753.45;;
74959;SDS011;63518;49.572;1.106;2024-02-21T09:10:13;808.28;;;751.63;;
74959;SDS011;63518;49.572;1.106;2024-02-21T09:12:40;821.13;;;763.78;;
74959;SDS011;63518;49.572;1.106;2024-02-21T09:15:07;811.65;;;756.08;;
74959;SDS011;63518;49.572;1.106;2024-02-21T09:17:35;822.17;;;764.67;;
74959;SDS011;63518;49.572;1.106;2024-02-21T09:20:02;820.33;;;763.47;;
74959;SDS011;63518;49.572;1.106;2024-02-21T09:22:30;818.28;;;762.38;;
74959;SDS011;63518;49.572;1.106;2024-02-21T09:25:00;817.70;;;761.33;;
74959;SDS011;63518;49.572;1.106;2024-02-21T09:27:30;818.30;;;761.10;;
74959;SDS011;63518;49.572;1.106;2024-02-21T09:29:57;817.03;;;759.90;;
74959;SDS011;63518;49.572;1.106;2024-02-21T09:32:25;816.60;;;759.38;;
74959;SDS011;63518;49.572;1.106;2024-02-21T09:34:52;817.50;;;761.30;;
74959;SDS011;63518;49.572;1.106;2024-02-21T09:37:25;815.13;;;759.67;;
74959;SDS011;63518;49.572;1.106;2024-02-21T09:39:52;820.13;;;764.20;;
74959;SDS011;63518;49.572;1.106;2024-02-21T09:42:20;816.53;;;760.72;;
74959;SDS011;63518;49.572;1.106;2024-02-21T09:44:50;811.05;;;756.25;;
74959;SDS011;63518;49.572;1.106;2024-02-21T09:47:19;817.13;;;761.10;;
74959;SDS011;63518;49.572;1.106;2024-02-21T09:49:50;813.58;;;758.03;;
74959;SDS011;63518;49.572;1.106;2024-02-21T09:52:18;816.60;;;760.17;;
74959;SDS011;63518;49.572;1.106;2024-02-21T09:54:47;811.95;;;756.33;;
74959;SDS011;63518;49.572;1.106;2024-02-21T09:57:15;809.38;;;753.42;;
74959;SDS011;63518;49.572;1.106;2024-02-21T09:59:43;814.65;;;758.42;;
74959;SDS011;63518;49.572;1.106;2024-02-21T10:02:12;814.45;;;757.15;;
74959;SDS011;63518;49.572;1.106;2024-02-21T10:04:42;810.63;;;753.60;;
74959;SDS011;63518;49.572;1.106;2024-02-21T10:07:10;813.88;;;756.75;;
74959;SDS011;63518;49.572;1.106;2024-02-21T10:09:38;813.88;;;757.05;;
74959;SDS011;63518;49.572;1.106;2024-02-21T10:12:10;816.15;;;758.80;;
74959;SDS011;63518;49.572;1.106;2024-02-21T10:14:42;825.67;;;767.28;;
74959;SDS011;63518;49.572;1.106;2024-02-21T10:17:14;828.78;;;769.60;;
74959;SDS011;63518;49.572;1.106;2024-02-21T10:19:44;819.42;;;760.92;;
74959;SDS011;63518;49.572;1.106;2024-02-21T10:22:12;821.30;;;762.08;;
74959;SDS011;63518;49.572;1.106;2024-02-21T10:24:39;811.55;;;753.63;;
74959;SDS011;63518;49.572;1.106;2024-02-21T10:27:08;819.55;;;761.95;;
74959;SDS011;63518;49.572;1.106;2024-02-21T10:29:39;807.63;;;750.50;;
74959;SDS011;63518;49.572;1.106;2024-02-21T10:32:07;814.78;;;757.08;;
74959;SDS011;63518;49.572;1.106;2024-02-21T10:34:36;815.95;;;757.67;;
74959;SDS011;63518;49.572;1.106;2024-02-21T10:37:08;860.75;;;794.38;;
74959;SDS011;63518;49.572;1.106;2024-02-21T10:39:44;847.00;;;782.25;;
74959;SDS011;63518;49.572;1.106;2024-02-21T10:42:12;831.03;;;766.65;;
74959;SDS011;63518;49.572;1.106;2024-02-21T10:44:40;836.22;;;771.65;;
74959;SDS011;63518;49.572;1.106;2024-02-21T10:47:10;835.22;;;770.72;;
74959;SDS011;63518;49.572;1.106;2024-02-21T10:49:40;835.75;;;771.83;;
74959;SDS011;63518;49.572;1.106;2024-02-21T10:52:15;826.45;;;763.55;;
74959;SDS011;63518;49.572;1.106;2024-02-21T10:54:54;836.38;;;772.25;;
74959;SDS011;63518;49.572;1.106;2024-02-21T10:57:25;825.78;;;762.80;;
74959;SDS011;63518;49.572;1.106;2024-02-21T10:59:55;830.25;;;767.10;;
74959;SDS011;63518;49.572;1.106;2024-02-21T11:02:25;833.40;;;770.50;;
74959;SDS011;63518;49.572;1.106;2024-02-21T11:04:55;825.08;;;761.92;;
74959;SDS011;63518;49.572;1.106;2024-02-21T11:07:22;824.70;;;762.35;;
74959;SDS011;63518;49.572;1.106;2024-02-21T11:09:51;834.25;;;770.75;;
74959;SDS011;63518;49.572;1.106;2024-02-21T11:12:20;828.95;;;765.88;;
74959;SDS011;63518;49.572;1.106;2024-02-21T11:14:50;825.00;;;762.53;;
74959;SDS011;63518;49.572;1.106;2024-02-21T11:17:17;829.78;;;766.40;;
74959;SDS011;63518;49.572;1.106;2024-02-21T11:19:45;824.88;;;762.05;;
74959;SDS011;63518;49.572;1.106;2024-02-21T11:22:16;828.90;;;765.55;;
74959;SDS011;63518;49.572;1.106;2024-02-21T11:24:45;826.78;;;764.50;;
74959;SDS011;63518;49.572;1.106;2024-02-21T11:27:13;830.83;;;768.53;;
74959;SDS011;63518;49.572;1.106;2024-02-21T11:29:43;827.20;;;764.58;;
74959;SDS011;63518;49.572;1.106;2024-02-21T11:32:14;821.25;;;759.88;;
74959;SDS011;63518;49.572;1.106;2024-02-21T11:34:58;832.10;;;769.83;;
74959;SDS011;63518;49.572;1.106;2024-02-21T11:37:32;819.72;;;758.15;;
74959;SDS011;63518;49.572;1.106;2024-02-21T11:40:01;822.60;;;760.78;;
74959;SDS011;63518;49.572;1.106;2024-02-21T11:42:30;830.60;;;767.97;;
74959;SDS011;63518;49.572;1.106;2024-02-21T11:45:03;830.53;;;768.55;;
74959;SDS011;63518;49.572;1.106;2024-02-21T11:47:30;833.53;;;770.72;;
74959;SDS011;63518;49.572;1.106;2024-02-21T11:49:57;826.50;;;764.17;;
74959;SDS011;63518;49.572;1.106;2024-02-21T11:52:25;831.70;;;768.72;;
74959;SDS011;63518;49.572;1.106;2024-02-21T11:54:53;824.15;;;762.60;;
74959;SDS011;63518;49.572;1.106;2024-02-21T11:57:23;827.60;;;765.25;;
74959;SDS011;63518;49.572;1.106;2024-02-21T11:59:50;834.10;;;771.70;;
74959;SDS011;63518;49.572;1.106;2024-02-21T12:02:25;826.00;;;764.50;;
74959;SDS011;63518;49.572;1.106;2024-02-21T12:04:53;830.38;;;768.05;;
74959;SDS011;63518;49.572;1.106;2024-02-21T12:07:21;828.85;;;767.03;;
74959;SDS011;63518;49.572;1.106;2024-02-21T12:09:50;832.97;;;770.88;;
74959;SDS011;63518;49.572;1.106;2024-02-21T12:12:19;829.10;;;766.80;;
74959;SDS011;63518;49.572;1.106;2024-02-21T12:14:53;826.55;;;764.75;;
74959;SDS011;63518;49.572;1.106;2024-02-21T12:17:26;830.50;;;768.67;;
74959;SDS011;63518;49.572;1.106;2024-02-21T12:19:54;829.92;;;767.85;;
74959;SDS011;63518;49.572;1.106;2024-02-21T12:22:21;825.17;;;763.20;;
74959;SDS011;63518;49.572;1.106;2024-02-21T12:24:48;830.72;;;769.08;;
74959;SDS011;63518;49.572;1.106;2024-02-21T12:27:15;831.58;;;769.45;;
74959;SDS011;63518;49.572;1.106;2024-02-21T12:29:42;831.42;;;769.92;;
74959;SDS011;63518;49.572;1.106;2024-02-21T12:32:09;840.35;;;778.13;;
74959;SDS011;63518;49.572;1.106;2024-02-21T12:34:37;835.60;;;773.05;;
74959;SDS011;63518;49.572;1.106;2024-02-21T12:37:19;829.08;;;765.92;;
74959;SDS011;63518;49.572;1.106;2024-02-21T12:39:47;825.45;;;763.03;;
74959;SDS011;63518;49.572;1.106;2024-02-21T12:42:15;819.65;;;757.15;;
74959;SDS011;63518;49.572;1.106;2024-02-21T12:44:42;824.60;;;761.63;;
74959;SDS011;63518;49.572;1.106;2024-02-21T12:47:09;823.90;;;760.95;;
74959;SDS011;63518;49.572;1.106;2024-02-21T12:49:37;830.08;;;766.90;;
74959;SDS011;63518;49.572;1.106;2024-02-21T12:52:10;820.85;;;759.42;;
74959;SDS011;63518;49.572;1.106;2024-02-21T12:54:38;821.50;;;759.78;;
74959;SDS011;63518;49.572;1.106;2024-02-21T12:57:05;821.17;;;758.85;;
74959;SDS011;63518;49.572;1.106;2024-02-21T12:59:32;818.65;;;756.92;;
74959;SDS011;63518;49.572;1.106;2024-02-21T13:01:59;822.17;;;760.20;;
74959;SDS011;63518;49.572;1.106;2024-02-21T13:04:26;818.10;;;756.63;;
74959;SDS011;63518;49.572;1.106;2024-02-21T13:06:54;820.10;;;758.28;;
74959;SDS011;63518;49.572;1.106;2024-02-21T13:09:22;818.35;;;756.13;;
74959;SDS011;63518;49.572;1.106;2024-02-21T13:11:49;817.92;;;756.60;;
74959;SDS011;63518;49.572;1.106;2024-02-21T13:14:18;813.20;;;752.40;;
74959;SDS011;63518;49.572;1.106;2024-02-21T13:16:45;811.47;;;751.03;;
74959;SDS011;63518;49.572;1.106;2024-02-21T13:19:12;815.80;;;755.13;;
74959;SDS011;63518;49.572;1.106;2024-02-21T13:21:44;825.35;;;763.72;;
74959;SDS011;63518;49.572;1.106;2024-02-21T13:24:12;824.85;;;763.70;;
74959;SDS011;63518;49.572;1.106;2024-02-21T13:26:39;817.63;;;757.35;;
74959;SDS011;63518;49.572;1.106;2024-02-21T13:29:06;812.60;;;752.45;;
74959;SDS011;63518;49.572;1.106;2024-02-21T13:31:33;815.00;;;755.03;;
74959;SDS011;63518;49.572;1.106;2024-02-21T13:34:01;815.78;;;755.75;;
74959;SDS011;63518;49.572;1.106;2024-02-21T13:36:28;809.22;;;749.67;;
74959;SDS011;63518;49.572;1.106;2024-02-21T13:38:57;818.10;;;757.80;;
74959;SDS011;63518;49.572;1.106;2024-02-21T13:41:25;821.15;;;760.22;;
74959;SDS011;63518;49.572;1.106;2024-02-21T13:43:52;809.92;;;750.10;;
74959;SDS011;63518;49.572;1.106;2024-02-21T13:46:19;811.80;;;751.05;;
74959;SDS011;63518;49.572;1.106;2024-02-21T13:48:46;817.40;;;756.67;;
74959;SDS011;63518;49.572;1.106;2024-02-21T13:51:14;800.88;;;740.97;;
74959;SDS011;63518;49.572;1.106;2024-02-21T13:53:43;798.95;;;739.45;;
74959;SDS011;63518;49.572;1.106;2024-02-21T13:56:10;801.42;;;742.15;;
74959;SDS011;63518;49.572;1.106;2024-02-21T13:58:37;803.53;;;744.70;;
74959;SDS011;63518;49.572;1.106;2024-02-21T14:01:04;805.17;;;746.22;;
74959;SDS011;63518;49.572;1.106;2024-02-21T14:03:31;806.55;;;746.35;;
74959;SDS011;63518;49.572;1.106;2024-02-21T14:05:59;795.80;;;736.22;;
74959;SDS011;63518;49.572;1.106;2024-02-21T14:08:26;787.95;;;728.88;;
74959;SDS011;63518;49.572;1.106;2024-02-21T14:10:54;791.80;;;731.65;;